Time;durP1;ratioP1;P1;durP2;ratioP2;P2;SDS_P1;SDS_P2;PMS_P1;PMS_P2;Temp;Humidity;BMP_temperature;BMP_pressure;BME280_temperature;BME280_humidity;BME280_pressure;Samples;Min_cycle;Max_cycle;Signal;HPM_P1;HPM_P2
2023/04/27 00:02:03;;;;;;;7.78;4.22;;;4.50;99.90;;;;;;6272594;22;20095;-73
2023/04/27 00:04:29;;;;;;;5.45;3.13;;;4.40;99.90;;;;;;6273546;22;20522;-74
2023/04/27 00:06:55;;;;;;;6.50;3.70;;;4.40;99.90;;;;;;6245867;22;20150;-74
2023/04/27 00:09:20;;;;;;;5.15;3.80;;;4.40;99.90;;;;;;6272771;22;20016;-74
2023/04/27 00:11:46;;;;;;;7.35;4.43;;;4.40;99.90;;;;;;6271502;22;20027;-74
2023/04/27 00:14:12;;;;;;;8.65;3.70;;;4.40;99.90;;;;;;6219822;22;20063;-74
2023/04/27 00:16:37;;;;;;;6.55;4.22;;;4.40;99.90;;;;;;6272964;22;20019;-74
2023/04/27 00:19:03;;;;;;;6.68;4.32;;;4.40;99.90;;;;;;6245673;22;20074;-74
2023/04/27 00:21:29;;;;;;;6.10;3.20;;;4.30;99.90;;;;;;6245479;22;20111;-74
2023/04/27 00:23:54;;;;;;;6.88;2.88;;;4.30;99.90;;;;;;6272899;22;20015;-74
2023/04/27 00:26:21;;;;;;;5.38;3.42;;;4.30;99.90;;;;;;6245822;22;20050;-74
2023/04/27 00:28:47;;;;;;;5.60;3.60;;;4.30;99.90;;;;;;6220250;22;20047;-74
2023/04/27 00:31:12;;;;;;;4.60;3.50;;;4.30;99.90;;;;;;6244919;22;20051;-73
2023/04/27 00:33:38;;;;;;;6.80;3.70;;;4.30;99.90;;;;;;6245741;22;20024;-74
2023/04/27 00:36:04;;;;;;;6.88;3.55;;;4.30;99.90;;;;;;6245370;22;20546;-74
2023/04/27 00:38:30;;;;;;;6.15;3.97;;;4.20;99.90;;;;;;6273047;22;20020;-74
2023/04/27 00:41:03;;;;;;;7.57;4.55;;;4.20;99.90;;;;;;6272692;22;20016;-74
2023/04/27 00:43:29;;;;;;;7.35;4.13;;;4.20;99.90;;;;;;6245572;22;20094;-74
2023/04/27 00:45:55;;;;;;;5.43;3.72;;;4.10;99.90;;;;;;6245307;22;20055;-74
2023/04/27 00:48:21;;;;;;;6.47;3.30;;;4.10;99.90;;;;;;6272918;22;20020;-74
2023/04/27 00:50:47;;;;;;;5.25;3.65;;;4.10;99.90;;;;;;6245586;22;20378;-74
2023/04/27 00:53:13;;;;;;;8.45;3.70;;;4.00;99.90;;;;;;6272923;22;20023;-74
2023/04/27 00:55:39;;;;;;;5.22;3.60;;;4.10;99.90;;;;;;6245752;22;20019;-74
2023/04/27 00:58:05;;;;;;;6.10;3.85;;;4.00;99.90;;;;;;6272677;22;20086;-74
2023/04/27 01:00:31;;;;;;;6.32;3.55;;;4.00;99.90;;;;;;6245681;22;20019;-73
2023/04/27 01:02:56;;;;;;;6.32;3.20;;;4.00;99.90;;;;;;6272793;22;20028;-73
2023/04/27 01:05:25;;;;;;;6.38;2.97;;;3.90;99.90;;;;;;6272968;22;20073;-74
2023/04/27 01:07:50;;;;;;;6.50;3.70;;;3.90;99.90;;;;;;6272685;22;20023;-74
2023/04/27 01:10:16;;;;;;;4.82;3.72;;;3.90;99.90;;;;;;6245304;22;20047;-74
2023/04/27 01:12:42;;;;;;;7.90;3.80;;;3.90;99.90;;;;;;6273019;22;20098;-74
2023/04/27 01:15:09;;;;;;;4.88;3.35;;;3.80;99.90;;;;;;6245226;22;20479;-74
2023/04/27 01:17:34;;;;;;;7.60;3.70;;;3.80;99.90;;;;;;6245364;22;20031;-74
2023/04/27 01:20:01;;;;;;;5.15;3.35;;;3.80;99.90;;;;;;6272896;22;20015;-74
2023/04/27 01:22:27;;;;;;;5.03;3.95;;;3.90;99.90;;;;;;6244639;22;20024;-74
2023/04/27 01:24:52;;;;;;;5.57;4.20;;;3.80;99.90;;;;;;6245061;22;20023;-73
2023/04/27 01:27:18;;;;;;;5.78;3.55;;;3.80;99.90;;;;;;6245467;22;20019;-72
2023/04/27 01:29:44;;;;;;;7.03;3.88;;;3.80;99.90;;;;;;6272169;22;20079;-74
2023/04/27 01:32:11;;;;;;;6.22;3.92;;;3.70;99.90;;;;;;6245423;22;20015;-74
2023/04/27 01:34:37;;;;;;;5.82;3.83;;;3.80;99.90;;;;;;6245087;22;20074;-73
2023/04/27 01:37:02;;;;;;;5.03;3.65;;;3.70;99.90;;;;;;6244454;22;20459;-73
2023/04/27 01:39:28;;;;;;;5.28;3.78;;;3.70;99.90;;;;;;6272608;22;20015;-73
2023/04/27 01:41:54;;;;;;;7.38;4.30;;;3.70;99.90;;;;;;6244798;22;20024;-73
2023/04/27 01:44:21;;;;;;;4.40;3.45;;;3.70;99.90;;;;;;6245482;22;20016;-74
2023/04/27 01:46:47;;;;;;;7.78;4.40;;;3.70;99.90;;;;;;6245253;22;20569;-73
2023/04/27 01:49:13;;;;;;;3.33;2.83;;;3.70;99.90;;;;;;6272402;22;20055;-73
2023/04/27 01:51:38;;;;;;;5.32;3.80;;;3.60;99.90;;;;;;6272401;22;20019;-74
2023/04/27 01:54:05;;;;;;;6.13;3.60;;;3.60;99.90;;;;;;6220165;22;20027;-73
2023/04/27 01:56:30;;;;;;;5.80;3.40;;;3.60;99.90;;;;;;6245362;22;20031;-73
2023/04/27 01:58:56;;;;;;;8.90;4.68;;;3.60;99.90;;;;;;6245444;22;20020;-73
2023/04/27 02:01:22;;;;;;;5.43;3.92;;;3.50;99.90;;;;;;6272362;22;20023;-73
2023/04/27 02:03:48;;;;;;;6.10;4.03;;;3.60;99.90;;;;;;6245413;22;20028;-73
2023/04/27 02:06:14;;;;;;;4.93;3.95;;;3.60;99.90;;;;;;6245000;22;20030;-73
2023/04/27 02:08:40;;;;;;;7.72;4.00;;;3.50;99.90;;;;;;6244935;22;20435;-73
2023/04/27 02:11:05;;;;;;;5.68;3.92;;;3.40;99.90;;;;;;6244800;22;20016;-73
2023/04/27 02:13:31;;;;;;;5.93;3.60;;;3.40;99.90;;;;;;6245210;22;20646;-73
2023/04/27 02:15:57;;;;;;;6.40;3.90;;;3.40;99.90;;;;;;6272558;22;20020;-73
2023/04/27 02:18:23;;;;;;;9.07;4.10;;;3.50;99.90;;;;;;6272487;22;20084;-73
2023/04/27 02:20:49;;;;;;;5.88;4.20;;;3.50;99.90;;;;;;6244681;22;20812;-73
2023/04/27 02:23:15;;;;;;;7.18;4.65;;;3.40;99.90;;;;;;6271789;22;20019;-73
2023/04/27 02:25:45;;;;;;;5.32;3.88;;;3.40;99.90;;;;;;6271833;22;20023;-72
2023/04/27 02:28:13;;;;;;;6.80;3.75;;;3.40;99.90;;;;;;6271878;22;20050;-73
2023/04/27 02:30:39;;;;;;;4.65;3.63;;;3.40;99.90;;;;;;6244705;22;20032;-73
2023/04/27 02:33:05;;;;;;;5.65;4.20;;;3.40;99.90;;;;;;6244693;22;20012;-73
2023/04/27 02:35:32;;;;;;;6.32;3.92;;;3.30;99.90;;;;;;6244516;22;20015;-73
2023/04/27 02:37:57;;;;;;;7.18;4.60;;;3.30;99.90;;;;;;6272279;22;20019;-73
2023/04/27 02:40:23;;;;;;;7.28;3.95;;;3.20;99.90;;;;;;6271978;22;20019;-73
2023/04/27 02:42:49;;;;;;;7.00;3.90;;;3.20;99.90;;;;;;6272175;22;20020;-73
2023/04/27 02:45:15;;;;;;;5.07;4.25;;;3.20;99.90;;;;;;6272183;22;20020;-72
2023/04/27 02:47:41;;;;;;;3.67;2.92;;;3.30;99.90;;;;;;6244842;22;20082;-73
2023/04/27 02:50:07;;;;;;;4.15;3.50;;;3.30;99.90;;;;;;6271712;22;20027;-73
2023/04/27 02:52:33;;;;;;;4.75;3.28;;;3.30;99.90;;;;;;6244546;22;20074;-73
2023/04/27 02:54:59;;;;;;;5.88;3.55;;;3.30;99.90;;;;;;6244556;22;20031;-73
2023/04/27 02:57:25;;;;;;;3.97;3.38;;;3.20;99.90;;;;;;6272154;22;20023;-73
2023/04/27 02:59:50;;;;;;;3.60;3.20;;;3.20;99.90;;;;;;6272225;22;20050;-73
2023/04/27 03:02:16;;;;;;;5.55;4.07;;;3.20;99.90;;;;;;6271744;22;20026;-73
2023/04/27 03:04:42;;;;;;;6.45;4.45;;;3.30;99.90;;;;;;6271443;22;20016;-73
2023/04/27 03:07:08;;;;;;;8.07;3.92;;;3.20;99.90;;;;;;6271790;22;20566;-73
2023/04/27 03:09:33;;;;;;;7.75;4.47;;;3.20;99.90;;;;;;6272033;22;20055;-73
2023/04/27 03:11:59;;;;;;;6.45;3.90;;;3.10;99.90;;;;;;6272033;22;20047;-73
2023/04/27 03:14:25;;;;;;;5.65;3.70;;;3.10;99.90;;;;;;6272213;22;20024;-73
2023/04/27 03:16:50;;;;;;;6.43;4.03;;;3.20;99.90;;;;;;6244623;22;20026;-73
2023/04/27 03:19:16;;;;;;;5.38;3.45;;;3.20;99.90;;;;;;6244364;22;20446;-73
2023/04/27 03:21:42;;;;;;;5.97;3.63;;;3.20;99.90;;;;;;6244990;22;20031;-73
2023/04/27 03:24:07;;;;;;;7.35;4.05;;;3.10;99.90;;;;;;6246477;22;20024;-72
2023/04/27 03:26:33;;;;;;;6.45;4.18;;;2.90;99.90;;;;;;6273807;22;20024;-72
2023/04/27 03:28:59;;;;;;;4.70;3.90;;;2.90;99.90;;;;;;6274190;22;20085;-73
2023/04/27 03:31:25;;;;;;;6.57;3.85;;;2.90;99.90;;;;;;6246097;22;20027;-72
2023/04/27 03:33:51;;;;;;;8.80;4.53;;;3.00;99.90;;;;;;6246263;22;20020;-73
2023/04/27 03:36:17;;;;;;;6.50;4.78;;;2.90;99.90;;;;;;6274157;22;20016;-73
2023/04/27 03:38:42;;;;;;;5.65;4.50;;;2.70;99.90;;;;;;6246461;22;20089;-73
2023/04/27 03:41:08;;;;;;;5.53;4.55;;;2.60;99.90;;;;;;6246377;22;20024;-73
2023/04/27 03:43:34;;;;;;;9.63;4.60;;;2.70;99.90;;;;;;6246492;22;20723;-73
2023/04/27 03:45:59;;;;;;;6.22;4.30;;;2.60;99.90;;;;;;6246660;22;20028;-72
2023/04/27 03:48:25;;;;;;;7.82;4.78;;;2.60;99.90;;;;;;6246719;22;20020;-72
2023/04/27 03:50:51;;;;;;;8.23;4.63;;;2.80;99.90;;;;;;6246643;22;20102;-72
2023/04/27 03:53:16;;;;;;;7.70;3.97;;;2.80;99.90;;;;;;6273559;22;20102;-73
2023/04/27 03:55:43;;;;;;;6.90;4.78;;;2.80;99.90;;;;;;6273581;22;20095;-72
2023/04/27 03:58:10;;;;;;;8.35;4.50;;;2.80;99.90;;;;;;6246412;22;20851;-72
2023/04/27 04:00:36;;;;;;;9.52;4.90;;;2.80;99.90;;;;;;6246416;22;20053;-72
2023/04/27 04:03:03;;;;;;;7.45;4.43;;;2.80;99.90;;;;;;6244537;22;20019;-72
2023/04/27 04:05:32;;;;;;;8.50;4.75;;;2.80;99.90;;;;;;6243898;22;20073;-72
2023/04/27 04:07:57;;;;;;;5.95;4.53;;;2.80;99.90;;;;;;6245565;22;20050;-72
2023/04/27 04:10:24;;;;;;;7.05;4.70;;;2.90;99.90;;;;;;6245216;22;20091;-73
2023/04/27 04:12:50;;;;;;;10.50;5.25;;;2.80;99.90;;;;;;6273187;22;20680;-73
2023/04/27 04:15:17;;;;;;;9.57;5.03;;;2.80;99.90;;;;;;6272837;22;20015;-73
2023/04/27 04:17:43;;;;;;;9.90;4.38;;;2.80;99.90;;;;;;6272461;22;20348;-73
2023/04/27 04:20:09;;;;;;;9.60;4.47;;;2.80;99.90;;;;;;6273288;22;20016;-73
2023/04/27 04:22:36;;;;;;;9.40;4.30;;;2.80;99.90;;;;;;6245317;22;20024;-72
2023/04/27 04:25:03;;;;;;;7.57;4.43;;;2.80;99.90;;;;;;6245693;22;20054;-73
2023/04/27 04:27:30;;;;;;;6.63;4.72;;;2.80;99.90;;;;;;6273167;22;20339;-73
2023/04/27 04:29:57;;;;;;;8.40;4.20;;;2.80;99.90;;;;;;6272619;22;20024;-73
2023/04/27 04:32:23;;;;;;;5.43;4.43;;;2.80;99.90;;;;;;6272483;22;20023;-72
2023/04/27 04:34:52;;;;;;;6.70;4.68;;;2.90;99.90;;;;;;6246213;22;20016;-73
2023/04/27 04:37:17;;;;;;;8.35;4.43;;;2.80;99.90;;;;;;6273039;22;20023;-73
2023/04/27 04:39:43;;;;;;;6.68;4.60;;;2.90;99.90;;;;;;6273011;22;20085;-73
2023/04/27 04:42:09;;;;;;;6.68;5.05;;;2.90;99.90;;;;;;6245673;22;20023;-72
2023/04/27 04:44:35;;;;;;;7.60;4.75;;;2.90;99.90;;;;;;6273273;22;20470;-72
2023/04/27 04:47:01;;;;;;;8.45;5.35;;;2.90;99.90;;;;;;6273050;22;20023;-72
2023/04/27 04:49:27;;;;;;;8.27;5.25;;;2.90;99.90;;;;;;6272839;22;20016;-72
2023/04/27 04:51:52;;;;;;;9.25;5.40;;;2.90;99.90;;;;;;6273084;22;20069;-73
2023/04/27 04:54:18;;;;;;;8.85;5.35;;;2.90;99.90;;;;;;6272879;22;20351;-73
2023/04/27 04:56:44;;;;;;;7.72;5.45;;;2.90;99.90;;;;;;6273275;22;20015;-72
2023/04/27 04:59:10;;;;;;;9.00;5.00;;;2.90;99.90;;;;;;6272943;22;20398;-72
2023/04/27 05:01:35;;;;;;;7.97;5.00;;;3.00;99.90;;;;;;6219964;22;20028;-72
2023/04/27 05:04:01;;;;;;;7.43;5.35;;;3.10;99.90;;;;;;6245493;22;20019;-73
2023/04/27 05:06:28;;;;;;;10.32;5.30;;;3.10;99.90;;;;;;6245318;22;20118;-73
2023/04/27 05:08:53;;;;;;;10.70;5.93;;;3.20;99.90;;;;;;6272984;22;20364;-73
2023/04/27 05:11:19;;;;;;;11.20;5.93;;;3.30;99.90;;;;;;6272737;22;20058;-74
2023/04/27 05:13:45;;;;;;;8.50;5.50;;;3.50;99.90;;;;;;6244601;22;20051;-74
2023/04/27 05:16:11;;;;;;;9.55;6.10;;;3.60;99.90;;;;;;6245351;22;20166;-74
2023/04/27 05:18:36;;;;;;;7.63;5.60;;;3.70;99.90;;;;;;6242988;22;20024;-73
2023/04/27 05:21:02;;;;;;;9.32;5.68;;;3.80;99.90;;;;;;6269956;22;20046;-72
2023/04/27 05:23:28;;;;;;;10.27;6.18;;;3.90;99.90;;;;;;6242505;22;20355;-73
2023/04/27 05:25:53;;;;;;;8.88;5.18;;;4.00;99.90;;;;;;6242796;22;20028;-72
2023/04/27 05:28:19;;;;;;;7.82;5.15;;;4.00;99.90;;;;;;6269532;22;20106;-72
2023/04/27 05:30:45;;;;;;;7.78;5.38;;;4.00;99.90;;;;;;6269861;22;20019;-72
2023/04/27 05:33:11;;;;;;;8.82;5.65;;;4.30;99.90;;;;;;6269987;22;20137;-73
2023/04/27 05:35:37;;;;;;;10.25;5.18;;;4.30;99.90;;;;;;6269963;22;20019;-73
2023/04/27 05:38:03;;;;;;;8.20;5.47;;;4.40;99.90;;;;;;6242487;22;20023;-73
2023/04/27 05:40:28;;;;;;;10.00;5.57;;;4.50;99.90;;;;;;6269722;22;20015;-73
2023/04/27 05:42:54;;;;;;;10.02;6.18;;;4.60;99.90;;;;;;6269074;22;20055;-73
2023/04/27 05:45:20;;;;;;;9.07;6.07;;;4.60;99.90;;;;;;6269574;22;20454;-73
2023/04/27 05:47:46;;;;;;;7.63;5.32;;;4.70;99.90;;;;;;6269803;22;20455;-73
2023/04/27 05:50:12;;;;;;;10.90;6.22;;;4.90;99.90;;;;;;6269549;22;20019;-73
2023/04/27 05:52:38;;;;;;;9.13;5.60;;;4.90;99.90;;;;;;6242524;22;20026;-73
2023/04/27 05:55:04;;;;;;;10.45;6.25;;;4.90;99.90;;;;;;6269826;22;20087;-73
2023/04/27 05:57:30;;;;;;;8.98;6.07;;;5.10;99.90;;;;;;6269268;22;20467;-74
2023/04/27 05:59:55;;;;;;;9.70;6.68;;;5.20;99.90;;;;;;6242375;22;20024;-73
2023/04/27 06:02:21;;;;;;;14.13;6.32;;;5.30;99.90;;;;;;6269972;22;20020;-72
2023/04/27 06:04:50;;;;;;;11.15;6.82;;;5.50;99.90;;;;;;6270390;22;20019;-72
2023/04/27 06:07:16;;;;;;;12.32;6.22;;;5.50;99.90;;;;;;6269543;22;20303;-73
2023/04/27 06:09:41;;;;;;;7.78;5.43;;;5.60;99.90;;;;;;6242371;22;20023;-73
2023/04/27 06:12:08;;;;;;;11.07;6.90;;;5.60;99.90;;;;;;6269368;22;20108;-72
2023/04/27 06:14:35;;;;;;;10.48;6.40;;;5.90;99.90;;;;;;6269446;22;20019;-72
2023/04/27 06:17:02;;;;;;;11.23;5.78;;;6.00;99.90;;;;;;6217482;22;20435;-72
2023/04/27 06:19:28;;;;;;;8.90;5.32;;;6.10;99.90;;;;;;6219317;22;20024;-73
2023/04/27 06:21:54;;;;;;;7.63;5.18;;;6.20;99.90;;;;;;6243763;22;20051;-73
2023/04/27 06:24:21;;;;;;;10.55;6.38;;;6.40;99.90;;;;;;6269046;22;20080;-72
2023/04/27 06:26:48;;;;;;;12.70;6.00;;;6.40;99.90;;;;;;6241587;22;20020;-73
2023/04/27 06:29:13;;;;;;;11.18;6.45;;;6.50;99.90;;;;;;6241918;22;20019;-73
2023/04/27 06:31:40;;;;;;;8.73;5.38;;;6.70;99.90;;;;;;6241565;22;20032;-71
2023/04/27 06:34:06;;;;;;;11.50;5.60;;;6.80;99.90;;;;;;6265585;22;20463;-72
2023/04/27 06:36:32;;;;;;;7.07;5.35;;;7.00;99.90;;;;;;6271179;22;20703;-73
2023/04/27 06:38:58;;;;;;;10.32;5.30;;;7.00;99.90;;;;;;6243898;22;20055;-72
2023/04/27 06:41:25;;;;;;;6.80;3.97;;;7.10;99.90;;;;;;6270667;22;20363;-73
2023/04/27 06:43:52;;;;;;;5.65;3.85;;;7.20;99.90;;;;;;6243991;22;20024;-72
2023/04/27 06:46:18;;;;;;;5.72;4.05;;;7.30;99.90;;;;;;6218665;22;20558;-72
2023/04/27 06:48:45;;;;;;;6.35;3.88;;;7.30;99.90;;;;;;6244663;22;20047;-72
2023/04/27 06:51:11;;;;;;;8.48;4.28;;;7.50;99.90;;;;;;6244842;22;20039;-72
2023/04/27 06:53:38;;;;;;;6.50;3.78;;;7.60;99.90;;;;;;6244055;22;20165;-72
2023/04/27 06:56:04;;;;;;;5.63;3.92;;;7.70;99.90;;;;;;6243448;22;20019;-73
2023/04/27 06:58:30;;;;;;;6.00;4.05;;;7.80;99.90;;;;;;6244093;22;20031;-80
2023/04/27 07:00:56;;;;;;;5.60;3.72;;;7.80;99.90;;;;;;6271111;22;20098;-77
2023/04/27 07:03:22;;;;;;;6.38;4.05;;;8.00;99.90;;;;;;6270950;22;20034;-70
2023/04/27 07:05:47;;;;;;;7.05;4.15;;;8.10;99.90;;;;;;6241097;22;20024;-70
2023/04/27 07:08:13;;;;;;;4.65;4.10;;;8.10;99.90;;;;;;6243661;22;20081;-71
2023/04/27 07:10:39;;;;;;;7.95;3.78;;;8.30;99.90;;;;;;6243197;22;20491;-71
2023/04/27 07:13:05;;;;;;;6.97;3.40;;;8.20;99.90;;;;;;6269833;22;20021;-71
2023/04/27 07:15:31;;;;;;;4.15;2.90;;;8.30;99.90;;;;;;6242690;22;20047;-71
2023/04/27 07:17:56;;;;;;;3.78;3.35;;;8.40;99.90;;;;;;6270689;22;20020;-70
2023/04/27 07:20:22;;;;;;;4.22;3.35;;;8.50;99.90;;;;;;6243207;22;20034;-71
2023/04/27 07:22:51;;;;;;;4.72;3.10;;;8.60;99.90;;;;;;6243352;22;20119;-70
2023/04/27 07:25:17;;;;;;;4.93;2.97;;;8.60;99.90;;;;;;6243247;22;20020;-71
2023/04/27 07:27:44;;;;;;;5.78;3.40;;;8.70;99.90;;;;;;6243417;22;20073;-72
2023/04/27 07:30:12;;;;;;;6.57;3.25;;;8.70;99.90;;;;;;6241016;22;20027;-72
2023/04/27 07:32:42;;;;;;;5.20;3.30;;;8.80;99.90;;;;;;6271217;22;20023;-71
2023/04/27 07:35:08;;;;;;;5.32;2.78;;;8.80;99.90;;;;;;6271015;22;20024;-72
2023/04/27 07:37:37;;;;;;;5.05;2.97;;;9.00;99.90;;;;;;6271548;22;20095;-72
2023/04/27 07:40:15;;;;;;;5.97;2.83;;;9.00;99.90;;;;;;6243613;22;20019;-73
2023/04/27 07:42:41;;;;;;;4.53;3.35;;;9.10;99.90;;;;;;6271605;22;20332;-72
2023/04/27 07:45:10;;;;;;;3.42;2.97;;;9.20;99.90;;;;;;6244170;22;20023;-72
2023/04/27 07:47:37;;;;;;;7.93;3.42;;;9.10;99.90;;;;;;6244210;22;20015;-73
2023/04/27 07:50:06;;;;;;;6.50;3.63;;;9.20;99.90;;;;;;6244504;22;20019;-72
2023/04/27 07:52:32;;;;;;;4.25;3.10;;;9.20;99.90;;;;;;6271343;22;20741;-71
2023/04/27 07:54:57;;;;;;;7.47;3.95;;;9.30;99.90;;;;;;6270927;22;20020;-72
2023/04/27 07:57:23;;;;;;;11.07;3.95;;;9.40;99.90;;;;;;6244005;22;20023;-72
2023/04/27 07:59:49;;;;;;;4.72;3.50;;;9.50;99.90;;;;;;6243539;22;20424;-72
2023/04/27 08:02:15;;;;;;;5.63;3.83;;;9.50;99.90;;;;;;6243920;22;20151;-72
2023/04/27 08:04:40;;;;;;;4.63;3.70;;;9.50;99.90;;;;;;6244007;22;20448;-72
2023/04/27 08:07:06;;;;;;;5.53;3.17;;;9.50;99.90;;;;;;6244266;22;20023;-72
2023/04/27 08:09:32;;;;;;;8.73;3.25;;;9.60;99.90;;;;;;6245412;22;20023;-72
2023/04/27 08:11:57;;;;;;;8.20;3.80;;;9.70;99.90;;;;;;6245992;22;20078;-72
2023/04/27 08:14:23;;;;;;;5.00;2.97;;;9.70;99.90;;;;;;6273232;22;20114;-73
2023/04/27 08:16:50;;;;;;;4.05;3.20;;;9.90;99.90;;;;;;6245927;22;20115;-73
2023/04/27 08:19:17;;;;;;;4.85;2.97;;;9.90;99.90;;;;;;6245883;22;20047;-73
2023/04/27 08:21:43;;;;;;;5.25;3.10;;;10.00;99.90;;;;;;6245846;22;20020;-73
2023/04/27 08:24:09;;;;;;;6.05;3.00;;;10.10;99.90;;;;;;6245412;22;20348;-72
2023/04/27 08:26:34;;;;;;;4.47;2.78;;;10.00;99.90;;;;;;6245854;22;20024;-72
2023/04/27 08:29:01;;;;;;;10.23;3.45;;;10.10;99.90;;;;;;6245635;22;20047;-72
2023/04/27 08:31:27;;;;;;;6.13;3.08;;;10.00;99.90;;;;;;6245595;22;20037;-72
2023/04/27 08:33:53;;;;;;;4.90;2.78;;;10.00;99.90;;;;;;6220607;22;20019;-72
2023/04/27 08:36:26;;;;;;;3.58;2.67;;;10.10;99.90;;;;;;6245845;22;20030;-72
2023/04/27 08:38:53;;;;;;;2.65;2.15;;;10.20;99.90;;;;;;6245563;22;20079;-73
2023/04/27 08:41:22;;;;;;;2.88;2.50;;;10.30;99.90;;;;;;6272480;22;20035;-72
2023/04/27 08:43:52;;;;;;;4.65;3.28;;;10.30;99.90;;;;;;6245616;22;20094;-73
2023/04/27 08:46:23;;;;;;;4.22;2.97;;;10.30;99.90;;;;;;6245841;22;20031;-72
2023/04/27 08:48:50;;;;;;;3.28;2.75;;;10.30;99.90;;;;;;6273186;22;20094;-72
2023/04/27 08:51:16;;;;;;;5.32;2.92;;;10.40;99.90;;;;;;6273073;22;20012;-73
2023/04/27 08:53:50;;;;;;;8.73;3.22;;;10.40;99.90;;;;;;6273212;22;20027;-73
2023/04/27 08:56:16;;;;;;;4.03;2.83;;;10.50;99.90;;;;;;6273421;22;20050;-72
2023/04/27 08:58:42;;;;;;;2.83;2.50;;;10.40;99.90;;;;;;6245900;22;20016;-72
2023/04/27 09:01:08;;;;;;;4.85;2.88;;;10.50;99.90;;;;;;6273542;22;20093;-72
2023/04/27 09:03:34;;;;;;;4.90;3.03;;;10.40;99.90;;;;;;6273129;22;20058;-73
2023/04/27 09:06:02;;;;;;;5.00;2.90;;;10.50;99.90;;;;;;6272611;22;20086;-73
2023/04/27 09:08:28;;;;;;;4.65;3.13;;;10.60;99.90;;;;;;6273192;22;20023;-73
2023/04/27 09:10:54;;;;;;;4.50;3.05;;;10.60;99.90;;;;;;6220253;22;20022;-73
2023/04/27 09:13:19;;;;;;;5.35;2.90;;;10.60;99.90;;;;;;6245788;22;20082;-73
2023/04/27 09:15:51;;;;;;;4.22;2.80;;;10.70;99.90;;;;;;6273150;22;20011;-72
2023/04/27 09:18:21;;;;;;;4.22;3.08;;;10.80;99.90;;;;;;6246005;22;20428;-73
2023/04/27 09:20:49;;;;;;;3.15;2.65;;;10.80;99.90;;;;;;6245229;22;20026;-72
2023/04/27 09:23:45;;;;;;;3.45;2.80;;;10.90;99.90;;;;;;6221298;22;20356;-73
2023/04/27 09:26:20;;;;;;;3.67;2.58;;;10.90;99.90;;;;;;6247365;22;20026;-72
2023/04/27 09:28:50;;;;;;;4.28;2.55;;;11.00;99.90;;;;;;6245177;22;20020;-73
2023/04/27 09:31:17;;;;;;;4.65;2.70;;;10.90;99.90;;;;;;6244802;22;20051;-72
2023/04/27 09:33:44;;;;;;;3.03;2.70;;;11.00;99.90;;;;;;6272683;22;20020;-73
2023/04/27 09:36:10;;;;;;;3.65;2.92;;;11.10;99.90;;;;;;6272243;22;20019;-72
2023/04/27 09:38:36;;;;;;;4.35;2.40;;;11.10;99.90;;;;;;6272372;22;20012;-72
2023/04/27 09:41:02;;;;;;;3.38;2.67;;;11.20;99.90;;;;;;6244817;22;20022;-73
2023/04/27 09:43:30;;;;;;;3.67;2.22;;;11.10;99.90;;;;;;6244553;22;20070;-71
2023/04/27 09:45:57;;;;;;;4.20;2.92;;;11.70;99.90;;;;;;6244682;22;20106;-70
2023/04/27 09:48:24;;;;;;;5.28;3.47;;;11.60;99.90;;;;;;6271760;22;20487;-70
2023/04/27 09:50:51;;;;;;;4.20;2.35;;;11.60;99.90;;;;;;6271569;22;20105;-72
2023/04/27 09:53:38;;;;;;;6.68;2.50;;;11.70;99.90;;;;;;6244290;22;20043;-72
2023/04/27 09:56:27;;;;;;;3.33;2.95;;;11.70;99.90;;;;;;6218935;22;20035;-75
2023/04/27 09:59:23;;;;;;;8.27;2.60;;;11.80;99.90;;;;;;6244228;22;20529;-72
2023/04/27 10:01:53;;;;;;;4.05;2.35;;;11.90;99.90;;;;;;6244316;22;20095;-72
2023/04/27 10:04:33;;;;;;;5.40;3.00;;;11.90;99.90;;;;;;6271173;22;20329;-72
2023/04/27 10:07:02;;;;;;;5.07;2.60;;;12.10;99.90;;;;;;6271299;22;20581;-72
2023/04/27 10:09:54;;;;;;;4.25;2.65;;;12.10;99.90;;;;;;6244579;22;20118;-72
2023/04/27 10:12:37;;;;;;;4.05;2.75;;;12.10;99.90;;;;;;6269735;22;20024;-72
2023/04/27 10:15:14;;;;;;;5.07;2.80;;;12.10;99.90;;;;;;6270837;22;20020;-72
2023/04/27 10:17:47;;;;;;;3.83;2.70;;;12.10;99.90;;;;;;6243429;22;20077;-72
2023/04/27 10:20:13;;;;;;;4.53;3.30;;;12.20;99.90;;;;;;6244102;22;20031;-72
2023/04/27 10:22:44;;;;;;;6.22;2.65;;;12.10;99.90;;;;;;6219019;22;20016;-72
2023/04/27 10:25:16;;;;;;;3.88;2.60;;;12.20;99.90;;;;;;6245134;22;20351;-73
2023/04/27 10:27:42;;;;;;;6.40;3.08;;;12.10;99.90;;;;;;6244869;22;20099;-72
2023/04/27 10:30:12;;;;;;;4.53;3.03;;;12.30;99.90;;;;;;6271103;22;20067;-72
2023/04/27 10:32:58;;;;;;;4.75;3.15;;;12.20;99.90;;;;;;6244295;22;20081;-72
2023/04/27 10:35:37;;;;;;;4.68;3.38;;;12.20;99.90;;;;;;6244066;22;20028;-72
2023/04/27 10:38:08;;;;;;;126.57;20.63;;;12.10;99.90;;;;;;6244547;22;20112;-72
2023/04/27 10:40:34;;;;;;;27.85;4.93;;;12.40;99.90;;;;;;6270856;22;20012;-72
2023/04/27 10:43:11;;;;;;;8.38;3.35;;;12.40;99.90;;;;;;6244443;22;20027;-72
2023/04/27 10:45:37;;;;;;;6.00;3.05;;;12.50;99.90;;;;;;6243774;22;20186;-71
2023/04/27 10:48:04;;;;;;;6.82;3.47;;;12.50;99.90;;;;;;6271207;22;20460;-73
2023/04/27 10:50:30;;;;;;;4.78;3.45;;;12.60;99.90;;;;;;6244246;22;20396;-72
2023/04/27 10:53:04;;;;;;;5.35;3.47;;;12.70;99.90;;;;;;6244468;22;20347;-72
2023/04/27 10:55:30;;;;;;;5.43;3.78;;;12.70;99.90;;;;;;6271115;22;20027;-72
2023/04/27 10:57:57;;;;;;;25.48;5.38;;;12.60;99.00;;;;;;6271250;22;20015;-71
2023/04/27 11:00:37;;;;;;;207.57;27.25;;;12.60;99.90;;;;;;6272289;22;20015;-72
2023/04/27 11:03:18;;;;;;;20.48;6.40;;;12.60;99.90;;;;;;6271654;22;20023;-72
2023/04/27 11:05:45;;;;;;;4.72;2.90;;;12.80;99.90;;;;;;6243161;22;20015;-72
2023/04/27 11:08:16;;;;;;;7.63;3.88;;;12.80;99.90;;;;;;6243890;22;20020;-76
2023/04/27 11:10:50;;;;;;;3.40;2.88;;;12.80;99.90;;;;;;6271663;22;20015;-75
2023/04/27 11:13:23;;;;;;;3.67;2.75;;;12.80;99.90;;;;;;6244562;22;20055;-75
2023/04/27 11:15:53;;;;;;;3.63;3.00;;;12.80;99.90;;;;;;6244240;22;20023;-75
2023/04/27 11:18:20;;;;;;;6.22;3.60;;;12.90;99.90;;;;;;6218308;22;20103;-75
2023/04/27 11:20:52;;;;;;;5.18;3.60;;;13.00;99.90;;;;;;6271325;22;20015;-72
2023/04/27 11:23:28;;;;;;;5.80;3.23;;;13.00;99.90;;;;;;6271208;22;20093;-72
2023/04/27 11:25:55;;;;;;;5.72;3.10;;;13.10;99.90;;;;;;6271620;22;20235;-73
2023/04/27 11:28:23;;;;;;;3.55;2.90;;;13.20;99.90;;;;;;6243851;22;20542;-73
2023/04/27 11:30:58;;;;;;;6.30;3.17;;;13.20;99.90;;;;;;6269697;22;20050;-72
2023/04/27 11:33:25;;;;;;;3.92;3.17;;;13.10;99.80;;;;;;6243882;22;20048;-73
2023/04/27 11:35:51;;;;;;;7.93;3.42;;;13.00;99.90;;;;;;6243597;22;20021;-73
2023/04/27 11:38:20;;;;;;;3.58;2.83;;;13.20;99.90;;;;;;6243899;22;20015;-73
2023/04/27 11:40:57;;;;;;;4.53;3.17;;;13.20;99.90;;;;;;6243425;22;20016;-73
2023/04/27 11:43:25;;;;;;;5.28;3.10;;;13.30;99.90;;;;;;6243837;22;20050;-73
2023/04/27 11:45:51;;;;;;;3.58;2.85;;;13.40;99.90;;;;;;6244206;22;20030;-73
2023/04/27 11:48:16;;;;;;;3.20;2.72;;;13.50;99.90;;;;;;6244641;22;20047;-73
2023/04/27 11:50:47;;;;;;;5.38;2.78;;;13.50;99.90;;;;;;6245767;22;20051;-73
2023/04/27 11:53:13;;;;;;;5.72;3.90;;;13.40;99.40;;;;;;6245735;22;20027;-73
2023/04/27 11:55:40;;;;;;;5.63;2.85;;;13.40;99.90;;;;;;6272777;22;20015;-73
2023/04/27 11:58:06;;;;;;;4.80;3.15;;;13.40;99.90;;;;;;6220469;22;20077;-73
2023/04/27 12:00:32;;;;;;;3.67;2.97;;;13.30;99.10;;;;;;6245001;22;20058;-73
2023/04/27 12:02:58;;;;;;;5.22;3.45;;;13.40;99.90;;;;;;6244823;22;20049;-73
2023/04/27 12:05:23;;;;;;;5.82;3.20;;;13.40;99.90;;;;;;6245088;22;20011;-72
2023/04/27 12:07:49;;;;;;;6.63;3.50;;;13.40;99.90;;;;;;6245565;22;20358;-73
2023/04/27 12:10:15;;;;;;;8.48;4.03;;;13.50;99.70;;;;;;6220343;22;20015;-73
2023/04/27 12:12:41;;;;;;;5.55;3.35;;;13.40;99.50;;;;;;6245771;22;20023;-73
2023/04/27 12:15:07;;;;;;;3.42;3.08;;;13.50;99.90;;;;;;6272894;22;20447;-73
2023/04/27 12:17:33;;;;;;;5.50;3.25;;;13.60;99.90;;;;;;6272746;22;20020;-73
2023/04/27 12:19:59;;;;;;;4.03;3.05;;;13.40;99.30;;;;;;6220355;22;20623;-73
2023/04/27 12:22:24;;;;;;;4.10;3.30;;;13.30;97.80;;;;;;6244578;22;20026;-74
2023/04/27 12:24:50;;;;;;;6.10;3.55;;;13.30;99.10;;;;;;6245667;22;20462;-73
2023/04/27 12:27:16;;;;;;;5.80;3.30;;;13.30;99.90;;;;;;6245681;22;20317;-73
2023/04/27 12:29:41;;;;;;;3.05;2.38;;;13.10;98.60;;;;;;6272432;22;20023;-73
2023/04/27 12:32:07;;;;;;;4.75;3.30;;;13.20;99.40;;;;;;6245271;22;20031;-73
2023/04/27 12:34:34;;;;;;;5.60;3.40;;;13.20;99.50;;;;;;6245492;22;20023;-73
2023/04/27 12:37:00;;;;;;;4.75;3.42;;;13.10;98.90;;;;;;6220197;22;20028;-73
2023/04/27 12:39:26;;;;;;;4.28;3.22;;;13.20;99.00;;;;;;6245497;22;20028;-73
2023/04/27 12:41:52;;;;;;;3.95;3.38;;;13.20;99.90;;;;;;6244279;22;20024;-73
2023/04/27 12:44:19;;;;;;;4.38;2.90;;;13.30;99.60;;;;;;6245059;22;20020;-73
2023/04/27 12:46:47;;;;;;;4.50;3.20;;;13.40;99.90;;;;;;6245121;22;20027;-73
2023/04/27 12:49:13;;;;;;;4.40;3.22;;;13.30;99.40;;;;;;6245132;22;20026;-73
2023/04/27 12:51:39;;;;;;;4.70;3.15;;;13.20;98.60;;;;;;6245161;22;20024;-73
2023/04/27 12:54:06;;;;;;;6.53;3.47;;;13.20;99.60;;;;;;6244336;22;20054;-73